Time;durP1;ratioP1;P1;durP2;ratioP2;P2;SDS_P1;SDS_P2;PMS_P1;PMS_P2;Temp;Humidity;BMP_temperature;BMP_pressure;BME280_temperature;BME280_humidity;BME280_pressure;Samples;Min_cycle;Max_cycle;Signal;HPM_P1;HPM_P2
2022/10/29 00:00:17;;;;;;;15.27;12.18;;;;;;;;;;5249001;28;20406;-69
2022/10/29 00:02:47;;;;;;;12.38;11.00;;;;;;;;;;5247170;28;20016;-69
2022/10/29 00:05:17;;;;;;;13.10;11.63;;;;;;;;;;5247053;28;20017;-70
2022/10/29 00:07:48;;;;;;;18.25;13.07;;;;;;;;;;5247190;28;20020;-69
2022/10/29 00:10:19;;;;;;;18.25;13.27;;;;;;;;;;5247463;28;20457;-68
2022/10/29 00:12:49;;;;;;;11.75;10.82;;;;;;;;;;5246031;28;20108;-68
2022/10/29 00:15:19;;;;;;;23.30;14.80;;;;;;;;;;5246167;28;20021;-69
2022/10/29 00:17:49;;;;;;;11.77;10.77;;;;;;;;;;5246953;28;20024;-69
2022/10/29 00:20:20;;;;;;;12.18;11.05;;;;;;;;;;5246770;28;20017;-70
2022/10/29 00:22:54;;;;;;;13.88;12.02;;;;;;;;;;5247090;28;20021;-70
2022/10/29 00:25:24;;;;;;;17.65;12.00;;;;;;;;;;5246804;28;20019;-68
2022/10/29 00:27:54;;;;;;;13.27;9.32;;;;;;;;;;5246942;28;20426;-68
2022/10/29 00:30:25;;;;;;;14.25;11.38;;;;;;;;;;5247941;28;20024;-69
2022/10/29 00:32:55;;;;;;;13.88;12.63;;;;;;;;;;5245593;28;20404;-69
2022/10/29 00:35:25;;;;;;;18.58;12.25;;;;;;;;;;5246312;28;20016;-70
2022/10/29 00:37:56;;;;;;;11.93;10.55;;;;;;;;;;5246430;28;20021;-69
2022/10/29 00:40:26;;;;;;;13.13;11.85;;;;;;;;;;5247563;28;20053;-67
2022/10/29 00:43:13;;;;;;;11.43;10.30;;;;;;;;;;5246496;28;20043;-67
2022/10/29 00:45:49;;;;;;;12.27;11.15;;;;;;;;;;5246336;28;20048;-68
2022/10/29 00:48:20;;;;;;;10.52;9.77;;;;;;;;;;5246496;28;20028;-69
2022/10/29 00:50:50;;;;;;;13.43;12.43;;;;;;;;;;5260283;22;20313;-86
2022/10/29 00:53:23;;;;;;;16.80;11.40;;;;;;;;;;5215082;28;20087;-86
2022/10/29 00:55:53;;;;;;;14.13;11.57;;;;;;;;;;5234810;28;20051;-86
2022/10/29 00:58:24;;;;;;;15.40;13.80;;;;;;;;;;5233879;28;20009;-86
2022/10/29 01:00:54;;;;;;;12.45;11.25;;;;;;;;;;5217033;28;20021;-86
2022/10/29 01:03:24;;;;;;;10.65;9.95;;;;;;;;;;5216472;28;20032;-86
2022/10/29 01:05:55;;;;;;;22.05;12.52;;;;;;;;;;5216348;28;20049;-86
2022/10/29 01:08:25;;;;;;;14.48;12.68;;;;;;;;;;5216773;28;20501;-86
2022/10/29 01:11:01;;;;;;;13.23;12.13;;;;;;;;;;5234131;28;20084;-86
2022/10/29 01:13:37;;;;;;;14.88;10.90;;;;;;;;;;5215385;28;20630;-86
2022/10/29 01:16:08;;;;;;;11.00;10.07;;;;;;;;;;5234326;28;20501;-86
2022/10/29 01:18:43;;;;;;;12.70;11.45;;;;;;;;;;5216553;28;20021;-86
2022/10/29 01:21:32;;;;;;;12.75;11.60;;;;;;;;;;5216285;28;20017;-87
2022/10/29 01:24:06;;;;;;;14.45;12.27;;;;;;;;;;5215883;28;20032;-86
2022/10/29 01:26:36;;;;;;;12.48;11.43;;;;;;;;;;5215353;28;20184;-87
2022/10/29 01:29:15;;;;;;;18.60;13.20;;;;;;;;;;5216055;28;20100;-87
2022/10/29 01:31:52;;;;;;;15.68;11.05;;;;;;;;;;5216383;28;20033;-85
2022/10/29 01:34:34;;;;;;;17.08;12.82;;;;;;;;;;5232842;28;20020;-86
2022/10/29 01:37:29;;;;;;;13.00;11.93;;;;;;;;;;5233950;28;20021;-86
2022/10/29 01:40:02;;;;;;;14.80;13.35;;;;;;;;;;5215205;28;20013;-86
2022/10/29 01:42:36;;;;;;;13.07;11.07;;;;;;;;;;5216262;28;20021;-86
2022/10/29 01:45:09;;;;;;;18.33;12.65;;;;;;;;;;5215000;28;20043;-86
2022/10/29 01:47:46;;;;;;;14.50;11.13;;;;;;;;;;5233606;28;20024;-86
2022/10/29 01:50:19;;;;;;;14.50;13.20;;;;;;;;;;5216026;28;20088;-87
2022/10/29 01:52:49;;;;;;;14.32;12.98;;;;;;;;;;5215812;28;20061;-87
2022/10/29 01:55:21;;;;;;;12.77;11.68;;;;;;;;;;5215194;28;20025;-87
2022/10/29 01:57:52;;;;;;;11.55;10.50;;;;;;;;;;5232126;28;20017;-87
2022/10/29 02:00:23;;;;;;;14.13;10.25;;;;;;;;;;5234162;28;20025;-87
2022/10/29 02:03:00;;;;;;;15.00;13.75;;;;;;;;;;5216142;28;20021;-87
2022/10/29 02:05:49;;;;;;;13.13;11.93;;;;;;;;;;5215443;28;20023;-87
2022/10/29 02:08:28;;;;;;;14.45;13.18;;;;;;;;;;5234089;28;20077;-87
2022/10/29 02:11:07;;;;;;;18.23;14.68;;;;;;;;;;5234150;28;20009;-87
2022/10/29 02:13:40;;;;;;;15.30;14.17;;;;;;;;;;5234676;28;20029;-87
2022/10/29 02:16:11;;;;;;;17.70;11.60;;;;;;;;;;5235497;28;20071;-88
2022/10/29 02:18:46;;;;;;;18.10;14.43;;;;;;;;;;5221264;28;20021;-89
2022/10/29 02:21:17;;;;;;;16.55;14.18;;;;;;;;;;5234575;28;20032;-87
2022/10/29 02:23:47;;;;;;;14.38;13.13;;;;;;;;;;5216057;28;20471;-89
2022/10/29 02:26:18;;;;;;;22.30;14.32;;;;;;;;;;5216173;28;20024;-88
2022/10/29 02:28:48;;;;;;;13.27;11.90;;;;;;;;;;5215656;28;20021;-88
2022/10/29 02:31:18;;;;;;;20.55;15.15;;;;;;;;;;5216509;28;20021;-88
2022/10/29 02:33:48;;;;;;;16.30;14.95;;;;;;;;;;5217157;28;20036;-88
2022/10/29 02:36:19;;;;;;;20.50;12.70;;;;;;;;;;5228323;28;20077;-86
2022/10/29 02:38:49;;;;;;;21.13;14.55;;;;;;;;;;5243017;28;20025;-87
2022/10/29 02:41:19;;;;;;;17.63;15.57;;;;;;;;;;5241577;28;20412;-89
2022/10/29 02:43:49;;;;;;;15.27;13.75;;;;;;;;;;5234429;28;20052;-88
2022/10/29 02:46:20;;;;;;;13.13;11.75;;;;;;;;;;5233782;28;20017;-88
2022/10/29 02:48:51;;;;;;;13.82;12.32;;;;;;;;;;5215992;28;20025;-89
2022/10/29 02:51:21;;;;;;;15.88;13.00;;;;;;;;;;5214831;28;20032;-89
2022/10/29 02:53:51;;;;;;;16.98;13.98;;;;;;;;;;5214528;28;20108;-89
2022/10/29 02:56:21;;;;;;;14.80;13.30;;;;;;;;;;5234312;28;20028;-89
2022/10/29 02:58:52;;;;;;;13.95;12.48;;;;;;;;;;5237223;28;20274;-87
2022/10/29 03:01:22;;;;;;;16.85;15.30;;;;;;;;;;5236656;28;20077;-87
2022/10/29 03:03:52;;;;;;;19.98;14.00;;;;;;;;;;5218374;28;20114;-87
2022/10/29 03:06:22;;;;;;;13.60;12.32;;;;;;;;;;5218973;28;20017;-88
2022/10/29 03:08:53;;;;;;;13.48;12.25;;;;;;;;;;5236638;28;20031;-89
2022/10/29 03:11:23;;;;;;;17.55;13.35;;;;;;;;;;5218465;28;20543;-88
2022/10/29 03:13:53;;;;;;;16.80;15.18;;;;;;;;;;5218236;28;20462;-88
2022/10/29 03:16:23;;;;;;;15.73;12.82;;;;;;;;;;5236693;28;20028;-89
2022/10/29 03:18:54;;;;;;;26.80;13.98;;;;;;;;;;5236327;28;20040;-89
2022/10/29 03:21:24;;;;;;;19.70;15.02;;;;;;;;;;5218928;28;20017;-89
2022/10/29 03:23:54;;;;;;;21.17;14.90;;;;;;;;;;5235241;28;20594;-89
2022/10/29 03:26:24;;;;;;;18.75;16.60;;;;;;;;;;5236325;28;20765;-90
2022/10/29 03:28:55;;;;;;;18.13;16.00;;;;;;;;;;5236714;28;20021;-90
2022/10/29 03:31:25;;;;;;;18.23;14.77;;;;;;;;;;5236934;28;20025;-89
2022/10/29 03:33:55;;;;;;;23.95;21.80;;;;;;;;;;5218367;28;20063;-90
2022/10/29 03:36:26;;;;;;;29.38;25.60;;;;;;;;;;5219239;28;20067;-89
2022/10/29 03:38:56;;;;;;;28.15;25.02;;;;;;;;;;5237227;28;20017;-89
2022/10/29 03:41:26;;;;;;;31.60;28.10;;;;;;;;;;5218818;28;20036;-87
2022/10/29 03:43:56;;;;;;;36.20;32.40;;;;;;;;;;5236173;28;20019;-88
2022/10/29 03:46:27;;;;;;;38.70;31.83;;;;;;;;;;5218675;28;20023;-89
2022/10/29 03:48:57;;;;;;;38.00;31.15;;;;;;;;;;5218467;28;20082;-89
2022/10/29 03:51:27;;;;;;;37.65;33.83;;;;;;;;;;5218492;28;20045;-89
2022/10/29 03:53:57;;;;;;;31.88;28.10;;;;;;;;;;5217918;28;20040;-89
2022/10/29 03:56:28;;;;;;;27.63;24.57;;;;;;;;;;5218547;28;20021;-90
2022/10/29 03:58:58;;;;;;;28.50;25.60;;;;;;;;;;5218082;28;20431;-90
2022/10/29 04:01:28;;;;;;;28.80;25.88;;;;;;;;;;5236249;28;20017;-89
2022/10/29 04:03:59;;;;;;;31.42;26.48;;;;;;;;;;5234415;28;20021;-90
2022/10/29 04:06:29;;;;;;;28.13;24.73;;;;;;;;;;5218116;28;20017;-89
2022/10/29 04:08:59;;;;;;;23.58;21.05;;;;;;;;;;5218012;28;20082;-89
2022/10/29 04:11:29;;;;;;;25.10;20.27;;;;;;;;;;5218132;28;20451;-90
2022/10/29 04:14:00;;;;;;;29.13;22.48;;;;;;;;;;5216931;28;20275;-89
2022/10/29 04:16:30;;;;;;;25.30;20.25;;;;;;;;;;5218349;28;20017;-89
2022/10/29 04:19:00;;;;;;;30.77;19.10;;;;;;;;;;5217860;28;20021;-89
2022/10/29 04:21:30;;;;;;;25.98;20.92;;;;;;;;;;5236015;28;20017;-88
2022/10/29 04:24:01;;;;;;;25.80;23.00;;;;;;;;;;5216877;28;20060;-90
2022/10/29 04:26:31;;;;;;;24.27;21.73;;;;;;;;;;5217984;28;20017;-88
2022/10/29 04:29:01;;;;;;;26.93;24.13;;;;;;;;;;5220273;28;20271;-88
2022/10/29 04:31:32;;;;;;;26.33;23.42;;;;;;;;;;5217467;28;20287;-89
2022/10/29 04:34:02;;;;;;;27.42;23.48;;;;;;;;;;5217127;28;20071;-88
2022/10/29 04:36:32;;;;;;;25.70;23.20;;;;;;;;;;5235403;28;20021;-88
2022/10/29 04:39:03;;;;;;;28.55;25.48;;;;;;;;;;5235068;28;20115;-88
2022/10/29 04:41:33;;;;;;;35.75;25.50;;;;;;;;;;5217547;28;20021;-87
2022/10/29 04:44:04;;;;;;;32.53;22.10;;;;;;;;;;5234851;28;20063;-88
2022/10/29 04:46:34;;;;;;;27.30;24.27;;;;;;;;;;5235812;28;20025;-87
2022/10/29 04:49:04;;;;;;;22.33;19.90;;;;;;;;;;5237973;28;20040;-87
2022/10/29 04:51:35;;;;;;;32.20;22.15;;;;;;;;;;5246951;28;20029;-87
2022/10/29 04:54:05;;;;;;;21.27;18.10;;;;;;;;;;5250120;28;20036;-86
2022/10/29 04:56:35;;;;;;;19.75;17.85;;;;;;;;;;5233730;28;20259;-87
2022/10/29 04:59:05;;;;;;;16.83;15.00;;;;;;;;;;5250943;28;20029;-85
2022/10/29 05:01:36;;;;;;;19.97;18.23;;;;;;;;;;5238510;28;20044;-87
2022/10/29 05:04:06;;;;;;;21.38;17.13;;;;;;;;;;5233567;28;20256;-88
2022/10/29 05:06:36;;;;;;;27.20;18.02;;;;;;;;;;5234463;28;20024;-88
2022/10/29 05:09:06;;;;;;;21.17;17.58;;;;;;;;;;5216670;28;20073;-88
2022/10/29 05:11:37;;;;;;;27.50;16.88;;;;;;;;;;5215918;28;20478;-88
2022/10/29 05:14:07;;;;;;;18.23;16.38;;;;;;;;;;5215425;28;20395;-88
2022/10/29 05:16:37;;;;;;;20.92;18.77;;;;;;;;;;5233797;28;20009;-88
2022/10/29 05:19:07;;;;;;;23.07;16.33;;;;;;;;;;5233475;28;20017;-85
2022/10/29 05:21:38;;;;;;;23.35;15.32;;;;;;;;;;5216516;28;20255;-87
2022/10/29 05:24:08;;;;;;;28.07;18.37;;;;;;;;;;5233406;28;20021;-88
2022/10/29 05:26:38;;;;;;;25.08;17.40;;;;;;;;;;5216145;28;20271;-88
2022/10/29 05:29:08;;;;;;;20.17;17.30;;;;;;;;;;5215737;28;20024;-86
2022/10/29 05:31:39;;;;;;;25.63;17.23;;;;;;;;;;5217299;28;20267;-86
2022/10/29 05:34:09;;;;;;;25.73;17.95;;;;;;;;;;5226967;28;20290;-86
2022/10/29 05:36:39;;;;;;;19.05;17.33;;;;;;;;;;5216147;28;20021;-86
2022/10/29 05:39:09;;;;;;;22.63;18.43;;;;;;;;;;5212418;28;20555;-87
2022/10/29 05:41:40;;;;;;;36.17;18.13;;;;;;;;;;5195080;28;20271;-86
2022/10/29 05:44:10;;;;;;;18.58;16.63;;;;;;;;;;5211470;28;20604;-87
2022/10/29 05:46:40;;;;;;;22.23;19.67;;;;;;;;;;5212894;28;20048;-85
2022/10/29 05:49:12;;;;;;;29.85;21.27;;;;;;;;;;5195299;28;20094;-85
2022/10/29 05:51:42;;;;;;;19.17;17.35;;;;;;;;;;5195394;28;20029;-88
2022/10/29 05:54:12;;;;;;;22.87;18.23;;;;;;;;;;5211907;28;20101;-87
2022/10/29 05:56:43;;;;;;;26.90;17.17;;;;;;;;;;5212347;28;20275;-86
2022/10/29 05:59:13;;;;;;;21.73;15.52;;;;;;;;;;5212584;28;20026;-86
2022/10/29 06:01:43;;;;;;;20.30;17.37;;;;;;;;;;5212736;28;20018;-85
2022/10/29 06:04:13;;;;;;;18.30;16.42;;;;;;;;;;5211955;28;20288;-85
2022/10/29 06:06:44;;;;;;;21.90;15.90;;;;;;;;;;5212544;28;20064;-86
2022/10/29 06:09:14;;;;;;;20.43;15.40;;;;;;;;;;5213141;28;20260;-86
2022/10/29 06:11:44;;;;;;;18.23;16.52;;;;;;;;;;5212716;28;20268;-86
2022/10/29 06:14:14;;;;;;;19.97;18.10;;;;;;;;;;5193915;28;20029;-86
2022/10/29 06:16:44;;;;;;;23.67;18.02;;;;;;;;;;5213005;28;20264;-86
2022/10/29 06:19:15;;;;;;;18.27;16.45;;;;;;;;;;5214060;28;20072;-87
2022/10/29 06:21:45;;;;;;;25.13;18.73;;;;;;;;;;5195466;28;20030;-85
2022/10/29 06:24:15;;;;;;;19.67;16.13;;;;;;;;;;5212454;28;20561;-86
2022/10/29 06:26:45;;;;;;;24.15;16.58;;;;;;;;;;5212553;28;20309;-86
2022/10/29 06:29:16;;;;;;;17.77;16.17;;;;;;;;;;5213332;28;20017;-86
2022/10/29 06:31:46;;;;;;;23.30;17.07;;;;;;;;;;5217501;28;20299;-85
2022/10/29 06:34:16;;;;;;;25.80;19.13;;;;;;;;;;5198481;28;20287;-85
2022/10/29 06:36:46;;;;;;;20.55;18.48;;;;;;;;;;5217082;28;20021;-86
2022/10/29 06:39:17;;;;;;;23.23;18.27;;;;;;;;;;5216765;28;20099;-85
2022/10/29 06:41:47;;;;;;;21.00;18.83;;;;;;;;;;5197233;28;20268;-86
2022/10/29 06:44:17;;;;;;;20.30;17.13;;;;;;;;;;5198831;28;20314;-85
2022/10/29 06:46:47;;;;;;;21.70;15.73;;;;;;;;;;5216130;28;20018;-86
2022/10/29 06:49:19;;;;;;;22.45;20.05;;;;;;;;;;5217101;28;20048;-87
2022/10/29 06:57:12;;;;;;;25.42;22.77;;;;;;;;;;5209815;28;19925;-69
2022/10/29 06:59:43;;;;;;;21.27;18.98;;;;;;;;;;5190926;28;20196;-70
2022/10/29 07:02:13;;;;;;;22.10;19.90;;;;;;;;;;5190836;28;20025;-70
2022/10/29 07:04:43;;;;;;;38.25;20.55;;;;;;;;;;5190914;28;20401;-71
2022/10/29 07:07:13;;;;;;;23.05;19.92;;;;;;;;;;5190193;28;20045;-73
2022/10/29 07:09:44;;;;;;;22.67;19.63;;;;;;;;;;5189349;28;20238;-70
2022/10/29 07:12:14;;;;;;;27.80;18.88;;;;;;;;;;5188196;28;20017;-71
2022/10/29 07:14:44;;;;;;;19.48;17.52;;;;;;;;;;5190144;28;20485;-70
2022/10/29 07:17:15;;;;;;;20.88;19.00;;;;;;;;;;5190560;28;20017;-70
2022/10/29 07:19:45;;;;;;;22.85;17.40;;;;;;;;;;5191047;28;20355;-70
2022/10/29 07:22:15;;;;;;;26.45;19.65;;;;;;;;;;5208096;28;20047;-70
2022/10/29 07:24:45;;;;;;;24.95;17.13;;;;;;;;;;5190309;28;20029;-70
2022/10/29 07:27:16;;;;;;;30.70;15.32;;;;;;;;;;5190632;28;20021;-70
2022/10/29 07:29:46;;;;;;;22.50;17.67;;;;;;;;;;5190502;28;20050;-70
2022/10/29 07:32:16;;;;;;;18.08;16.38;;;;;;;;;;5208149;28;20100;-70
2022/10/29 07:34:47;;;;;;;17.98;16.02;;;;;;;;;;5190236;28;20029;-70
2022/10/29 07:37:17;;;;;;;16.17;14.32;;;;;;;;;;5190669;28;20023;-70
2022/10/29 07:39:47;;;;;;;21.83;15.43;;;;;;;;;;5208347;28;20064;-69
2022/10/29 07:42:20;;;;;;;18.20;16.30;;;;;;;;;;5207586;28;20045;-71
2022/10/29 07:44:51;;;;;;;25.00;18.00;;;;;;;;;;5190046;28;20028;-70
2022/10/29 07:47:21;;;;;;;23.35;16.33;;;;;;;;;;5190225;28;20030;-69
2022/10/29 07:49:51;;;;;;;16.85;15.00;;;;;;;;;;5190057;28;20046;-70
2022/10/29 07:52:22;;;;;;;23.45;18.30;;;;;;;;;;5207865;28;20060;-70
2022/10/29 07:54:52;;;;;;;19.65;14.77;;;;;;;;;;5207415;28;20116;-70
2022/10/29 07:57:22;;;;;;;23.17;16.45;;;;;;;;;;5190229;28;20428;-69
2022/10/29 07:59:52;;;;;;;30.73;15.40;;;;;;;;;;5190055;28;20025;-73
2022/10/29 08:02:23;;;;;;;18.88;16.33;;;;;;;;;;5207514;28;20473;-70
2022/10/29 08:04:53;;;;;;;23.45;13.55;;;;;;;;;;5189323;28;20026;-69
2022/10/29 08:07:23;;;;;;;19.63;17.33;;;;;;;;;;5207499;28;20431;-69
2022/10/29 08:09:54;;;;;;;20.00;14.82;;;;;;;;;;5189551;28;20026;-70
2022/10/29 08:12:24;;;;;;;17.55;14.75;;;;;;;;;;5189742;28;20017;-68
2022/10/29 08:14:54;;;;;;;18.58;13.95;;;;;;;;;;5189186;28;20021;-69
2022/10/29 08:17:27;;;;;;;15.38;13.80;;;;;;;;;;5207478;28;20450;-67
2022/10/29 08:19:58;;;;;;;19.17;15.18;;;;;;;;;;5189473;28;20099;-68
2022/10/29 08:22:29;;;;;;;22.67;13.35;;;;;;;;;;5189580;28;20057;-68
2022/10/29 08:24:59;;;;;;;13.35;11.82;;;;;;;;;;5189479;28;20382;-69
2022/10/29 08:27:29;;;;;;;12.70;10.05;;;;;;;;;;5207636;28;20037;-67
2022/10/29 08:30:00;;;;;;;14.68;10.68;;;;;;;;;;5189140;28;20026;-67
2022/10/29 08:32:30;;;;;;;11.35;10.25;;;;;;;;;;5189127;28;20063;-68
2022/10/29 08:35:01;;;;;;;14.48;10.98;;;;;;;;;;5188807;28;20449;-68
2022/10/29 08:37:31;;;;;;;18.42;10.73;;;;;;;;;;5189278;28;20029;-68
2022/10/29 08:40:01;;;;;;;14.77;10.70;;;;;;;;;;5206994;28;20073;-67
2022/10/29 08:42:35;;;;;;;14.80;8.77;;;;;;;;;;5206877;28;20021;-67
2022/10/29 08:45:11;;;;;;;8.73;7.97;;;;;;;;;;5188597;28;20139;-67
2022/10/29 08:47:52;;;;;;;19.10;9.07;;;;;;;;;;5189084;28;20029;-67
2022/10/29 08:50:22;;;;;;;12.75;9.32;;;;;;;;;;5188887;28;20478;-67
2022/10/29 08:52:52;;;;;;;9.90;9.00;;;;;;;;;;5188930;28;20408;-67
2022/10/29 08:55:25;;;;;;;16.63;9.32;;;;;;;;;;5205593;28;20524;-67
2022/10/29 08:57:56;;;;;;;10.90;8.00;;;;;;;;;;5189062;28;20021;-67
2022/10/29 09:00:32;;;;;;;9.45;7.18;;;;;;;;;;5187914;28;20025;-67
2022/10/29 09:03:09;;;;;;;13.32;7.05;;;;;;;;;;5187466;28;20492;-67
2022/10/29 09:05:45;;;;;;;7.30;6.63;;;;;;;;;;5204664;28;20018;-67
2022/10/29 09:08:28;;;;;;;12.88;7.95;;;;;;;;;;5187350;28;20013;-67
2022/10/29 09:11:05;;;;;;;10.18;8.15;;;;;;;;;;5187150;28;20021;-67
2022/10/29 09:13:38;;;;;;;13.32;7.25;;;;;;;;;;5187003;28;20378;-67
2022/10/29 09:16:11;;;;;;;8.23;6.72;;;;;;;;;;5204682;28;20022;-67
2022/10/29 09:18:48;;;;;;;8.50;5.60;;;;;;;;;;5204855;28;20025;-67
2022/10/29 09:21:33;;;;;;;9.52;7.30;;;;;;;;;;5187251;28;20025;-67
2022/10/29 09:24:27;;;;;;;12.48;6.60;;;;;;;;;;5186817;28;20021;-67
2022/10/29 09:26:58;;;;;;;8.98;6.68;;;;;;;;;;5176559;28;20382;-67
2022/10/29 09:29:29;;;;;;;10.02;6.53;;;;;;;;;;5186797;28;20026;-66
2022/10/29 09:32:04;;;;;;;6.85;6.40;;;;;;;;;;5187062;28;20029;-66
2022/10/29 09:34:39;;;;;;;6.22;5.75;;;;;;;;;;5204359;28;20393;-66
2022/10/29 09:37:35;;;;;;;5.38;4.93;;;;;;;;;;5186810;28;20108;-66
2022/10/29 09:40:13;;;;;;;10.32;5.50;;;;;;;;;;5156883;28;20029;-67
2022/10/29 09:42:45;;;;;;;8.85;6.85;;;;;;;;;;5186773;28;20025;-66
2022/10/29 09:45:17;;;;;;;8.23;6.25;;;;;;;;;;5186308;28;20021;-67
2022/10/29 09:47:47;;;;;;;7.40;5.63;;;;;;;;;;5186767;28;20104;-67
2022/10/29 09:50:25;;;;;;;13.05;6.82;;;;;;;;;;5186691;28;20120;-67
2022/10/29 09:52:56;;;;;;;12.65;5.35;;;;;;;;;;5186607;28;20063;-68
2022/10/29 09:55:28;;;;;;;6.53;6.10;;;;;;;;;;5186164;28;20076;-67
2022/10/29 09:57:58;;;;;;;8.00;5.57;;;;;;;;;;5186610;28;20397;-67
2022/10/29 10:00:30;;;;;;;6.93;5.57;;;;;;;;;;5186464;28;20029;-67
2022/10/29 10:03:03;;;;;;;5.25;4.85;;;;;;;;;;5186641;28;20034;-68
2022/10/29 10:05:34;;;;;;;11.70;5.53;;;;;;;;;;5188127;28;20061;-68
2022/10/29 10:08:09;;;;;;;7.00;5.75;;;;;;;;;;5190803;28;20378;-68
2022/10/29 10:10:59;;;;;;;7.85;6.97;;;;;;;;;;5190525;28;20017;-68
2022/10/29 10:13:48;;;;;;;18.05;6.13;;;;;;;;;;5190170;28;20478;-68
2022/10/29 10:16:22;;;;;;;6.75;6.28;;;;;;;;;;5208618;28;20500;-68
2022/10/29 10:18:53;;;;;;;5.60;5.30;;;;;;;;;;5190567;28;20021;-67
2022/10/29 10:21:27;;;;;;;7.32;5.53;;;;;;;;;;5190285;28;20021;-67
2022/10/29 10:23:58;;;;;;;14.45;6.13;;;;;;;;;;5190156;28;20021;-67
2022/10/29 10:26:42;;;;;;;5.80;5.28;;;;;;;;;;5190564;28;20025;-67
2022/10/29 10:29:14;;;;;;;12.40;4.90;;;;;;;;;;5190074;28;20496;-67
2022/10/29 10:31:45;;;;;;;6.82;6.20;;;;;;;;;;5190420;28;20033;-68
2022/10/29 10:34:20;;;;;;;12.23;6.22;;;;;;;;;;5190000;28;20025;-68
2022/10/29 10:36:51;;;;;;;13.07;6.10;;;;;;;;;;5207906;28;20032;-68
2022/10/29 10:39:22;;;;;;;8.25;6.47;;;;;;;;;;5189801;28;20095;-67
2022/10/29 10:41:52;;;;;;;11.25;6.25;;;;;;;;;;5190015;28;20116;-67
2022/10/29 10:44:23;;;;;;;10.60;8.45;;;;;;;;;;5189803;28;20025;-67
2022/10/29 10:46:54;;;;;;;9.80;5.85;;;;;;;;;;5190093;28;20018;-67
2022/10/29 10:49:29;;;;;;;9.63;6.32;;;;;;;;;;5189824;28;20021;-67
2022/10/29 10:52:01;;;;;;;11.02;6.30;;;;;;;;;;5189778;28;20394;-67
2022/10/29 10:54:37;;;;;;;29.42;6.25;;;;;;;;;;5189602;28;20061;-68
2022/10/29 10:57:18;;;;;;;6.18;5.35;;;;;;;;;;5189766;28;20033;-67
2022/10/29 10:59:57;;;;;;;6.38;4.70;;;;;;;;;;5189780;28;20075;-68
2022/10/29 11:02:30;;;;;;;7.45;6.72;;;;;;;;;;5189682;28;20167;-67
2022/10/29 11:05:33;;;;;;;8.57;4.85;;;;;;;;;;5189415;28;20025;-68
2022/10/29 11:08:19;;;;;;;9.93;5.53;;;;;;;;;;5146586;28;20124;-67
2022/10/29 11:11:08;;;;;;;8.10;5.82;;;;;;;;;;5189406;28;20553;-67
2022/10/29 11:13:40;;;;;;;8.45;6.00;;;;;;;;;;5189133;28;20025;-68
2022/10/29 11:16:19;;;;;;;4.57;4.25;;;;;;;;;;5189053;28;20010;-68
2022/10/29 11:18:59;;;;;;;7.05;5.50;;;;;;;;;;5188969;28;20100;-67
2022/10/29 11:21:52;;;;;;;7.55;5.90;;;;;;;;;;5189226;28;20389;-67
2022/10/29 11:24:22;;;;;;;6.57;4.93;;;;;;;;;;5178563;28;20386;-67
2022/10/29 11:26:57;;;;;;;4.82;4.47;;;;;;;;;;5189165;28;20063;-67
2022/10/29 11:29:27;;;;;;;11.98;6.40;;;;;;;;;;5189264;28;20033;-67
2022/10/29 11:32:12;;;;;;;13.30;4.85;;;;;;;;;;5189015;28;20251;-67
2022/10/29 11:34:55;;;;;;;5.80;5.13;;;;;;;;;;5188752;28;20389;-67
2022/10/29 11:37:25;;;;;;;5.43;5.00;;;;;;;;;;5188889;28;20104;-67
2022/10/29 11:39:56;;;;;;;6.40;4.32;;;;;;;;;;5188724;28;20125;-67
2022/10/29 11:42:26;;;;;;;9.25;4.20;;;;;;;;;;5189273;28;20021;-67
2022/10/29 11:44:59;;;;;;;6.05;5.20;;;;;;;;;;5206720;28;20508;-66
2022/10/29 11:47:30;;;;;;;5.75;4.53;;;;;;;;;;5189136;28;20037;-67
2022/10/29 11:50:19;;;;;;;5.53;5.13;;;;;;;;;;5188897;28;20119;-67
2022/10/29 11:53:12;;;;;;;5.00;4.65;;;;;;;;;;5188706;28;20029;-66
2022/10/29 11:55:54;;;;;;;15.90;5.85;;;;;;;;;;5177712;28;20077;-67
2022/10/29 11:58:33;;;;;;;9.60;5.70;;;;;;;;;;5188721;28;20056;-67
2022/10/29 12:01:13;;;;;;;12.13;6.15;;;;;;;;;;5188533;28;20027;-67
2022/10/29 12:03:53;;;;;;;7.53;4.00;;;;;;;;;;5205995;28;20017;-67
2022/10/29 12:06:29;;;;;;;6.22;4.28;;;;;;;;;;5206278;28;20032;-67
2022/10/29 12:09:18;;;;;;;17.30;5.03;;;;;;;;;;5205986;28;20028;-67
2022/10/29 12:11:48;;;;;;;14.65;5.32;;;;;;;;;;5188176;28;20028;-67
2022/10/29 12:14:25;;;;;;;8.95;6.57;;;;;;;;;;5205634;28;20390;-66
2022/10/29 12:17:00;;;;;;;9.25;5.15;;;;;;;;;;5188182;28;20022;-67
2022/10/29 12:19:31;;;;;;;4.63;4.25;;;;;;;;;;5205693;28;20020;-67
2022/10/29 12:22:01;;;;;;;7.30;4.97;;;;;;;;;;5205851;28;20018;-67
2022/10/29 12:24:46;;;;;;;8.18;6.53;;;;;;;;;;5187655;28;20468;-67
2022/10/29 12:27:31;;;;;;;8.40;4.32;;;;;;;;;;5188036;28;20033;-67
2022/10/29 12:30:04;;;;;;;8.75;4.75;;;;;;;;;;5187810;28;20571;-67
2022/10/29 12:32:44;;;;;;;6.28;3.97;;;;;;;;;;5187885;28;20033;-67
2022/10/29 12:35:21;;;;;;;7.13;4.15;;;;;;;;;;5187611;28;20065;-67
2022/10/29 12:37:54;;;;;;;13.60;6.03;;;;;;;;;;5187866;28;20022;-67
2022/10/29 12:40:27;;;;;;;7.85;5.35;;;;;;;;;;5187334;28;20017;-67
2022/10/29 12:43:04;;;;;;;5.10;4.68;;;;;;;;;;5187722;28;20017;-67
2022/10/29 12:45:41;;;;;;;10.32;4.90;;;;;;;;;;5187526;28;20113;-66
2022/10/29 12:48:15;;;;;;;7.32;5.65;;;;;;;;;;5187647;28;20024;-66
2022/10/29 12:51:04;;;;;;;6.18;4.25;;;;;;;;;;5205038;28;20029;-65
2022/10/29 12:53:34;;;;;;;;;;;;;;;;;;5200950;22;20045;-63
2022/10/29 12:56:05;;;;;;;5.47;4.03;;;;;;;;;;5203428;28;20307;-63
2022/10/29 12:58:55;;;;;;;9.90;5.10;;;;;;;;;;5203698;28;20044;-65
2022/10/29 13:01:26;;;;;;;7.45;5.18;;;;;;;;;;5185802;28;20030;-65
2022/10/29 13:03:57;;;;;;;5.97;5.38;;;;;;;;;;5185839;28;20052;-65
2022/10/29 13:06:42;;;;;;;9.90;5.50;;;;;;;;;;5185748;28;20033;-64
2022/10/29 13:09:15;;;;;;;12.00;4.53;;;;;;;;;;5203296;28;20022;-64
2022/10/29 13:11:48;;;;;;;9.30;4.90;;;;;;;;;;5186904;28;20032;-70
2022/10/29 13:14:21;;;;;;;7.65;5.40;;;;;;;;;;5187115;28;20187;-65
2022/10/29 13:16:52;;;;;;;5.65;5.25;;;;;;;;;;5187167;28;20017;-64
2022/10/29 13:19:43;;;;;;;5.72;4.25;;;;;;;;;;5187224;28;20078;-66
2022/10/29 13:22:13;;;;;;;6.88;5.25;;;;;;;;;;5187353;28;20022;-64
2022/10/29 13:24:43;;;;;;;12.65;5.40;;;;;;;;;;5204318;28;20539;-64
2022/10/29 13:27:16;;;;;;;5.43;4.35;;;;;;;;;;5205099;28;20108;-64
2022/10/29 13:29:48;;;;;;;5.60;5.05;;;;;;;;;;5186638;28;20032;-69
2022/10/29 13:32:35;;;;;;;5.50;4.97;;;;;;;;;;5186591;28;20111;-64
2022/10/29 13:35:14;;;;;;;5.35;4.95;;;;;;;;;;5186280;28;20091;-68
2022/10/29 13:37:45;;;;;;;9.65;4.13;;;;;;;;;;5204736;28;20385;-63
2022/10/29 13:40:21;;;;;;;10.48;5.55;;;;;;;;;;5203882;28;20025;-64
2022/10/29 13:43:03;;;;;;;8.35;6.30;;;;;;;;;;5187144;28;20108;-70
2022/10/29 13:45:35;;;;;;;6.00;4.93;;;;;;;;;;5186637;28;20448;-63
2022/10/29 13:48:35;;;;;;;8.95;6.55;;;;;;;;;;5186710;28;20076;-63
2022/10/29 13:51:07;;;;;;;6.30;5.63;;;;;;;;;;5173736;28;20065;-63
2022/10/29 13:53:45;;;;;;;17.33;6.55;;;;;;;;;;5186507;28;20029;-64
2022/10/29 13:56:18;;;;;;;6.15;5.85;;;;;;;;;;5186486;28;20366;-63
2022/10/29 13:58:50;;;;;;;19.00;7.15;;;;;;;;;;5204409;28;20017;-64
2022/10/29 14:01:21;;;;;;;13.90;6.03;;;;;;;;;;5204415;28;20032;-64
2022/10/29 14:04:24;;;;;;;11.85;6.70;;;;;;;;;;5186310;28;20052;-65
2022/10/29 14:06:54;;;;;;;4.78;4.47;;;;;;;;;;5154555;28;20030;-63
2022/10/29 14:09:32;;;;;;;8.63;5.53;;;;;;;;;;5186392;28;20477;-63
2022/10/29 14:12:05;;;;;;;10.30;5.18;;;;;;;;;;5186215;28;20048;-64
2022/10/29 14:14:40;;;;;;;6.22;5.35;;;;;;;;;;5185727;28;20481;-70
2022/10/29 14:17:14;;;;;;;6.68;4.10;;;;;;;;;;5186495;28;20033;-63
2022/10/29 14:19:45;;;;;;;4.50;4.18;;;;;;;;;;5185850;28;20023;-64
2022/10/29 14:22:16;;;;;;;7.82;5.03;;;;;;;;;;5185642;28;20078;-70
2022/10/29 14:24:46;;;;;;;9.07;5.75;;;;;;;;;;5185588;28;20025;-67
2022/10/29 14:27:16;;;;;;;16.07;7.57;;;;;;;;;;5186029;28;20089;-66
2022/10/29 14:29:47;;;;;;;7.70;5.53;;;;;;;;;;5186085;28;20752;-66
2022/10/29 14:32:19;;;;;;;6.68;4.63;;;;;;;;;;5186305;28;20025;-64
2022/10/29 14:34:50;;;;;;;11.07;5.28;;;;;;;;;;5185768;28;20017;-68
2022/10/29 14:37:36;;;;;;;12.55;6.03;;;;;;;;;;5204092;28;20047;-64
2022/10/29 14:40:18;;;;;;;20.55;5.68;;;;;;;;;;5185690;28;20192;-64
2022/10/29 14:42:53;;;;;;;16.70;7.50;;;;;;;;;;5186592;28;20028;-63
2022/10/29 14:45:24;;;;;;;7.82;6.95;;;;;;;;;;5185981;28;20026;-71
2022/10/29 14:47:56;;;;;;;6.97;4.88;;;;;;;;;;5186239;28;20113;-64
2022/10/29 14:50:28;;;;;;;5.20;4.25;;;;;;;;;;5204120;28;20046;-69
2022/10/29 14:53:07;;;;;;;7.60;4.97;;;;;;;;;;5187988;28;20025;-64
2022/10/29 14:55:40;;;;;;;7.97;6.22;;;;;;;;;;5189575;28;20026;-64
2022/10/29 14:58:11;;;;;;;8.68;6.75;;;;;;;;;;5190019;28;20059;-63
2022/10/29 15:01:00;;;;;;;5.72;5.05;;;;;;;;;;5207785;28;20560;-64
2022/10/29 15:03:31;;;;;;;6.80;3.95;;;;;;;;;;5189870;28;20029;-65
2022/10/29 15:06:18;;;;;;;7.32;6.57;;;;;;;;;;5189890;28;20384;-62